sensor_id;sensor_type;location;lat;lon;timestamp;P1;durP1;ratioP1;P2;durP2;ratioP2
13973;SDS011;7060;43.770;4.008;2022-10-16T00:01:24;7.50;;;5.90;;
13973;SDS011;7060;43.770;4.008;2022-10-16T00:03:54;6.77;;;4.83;;
13973;SDS011;7060;43.770;4.008;2022-10-16T00:06:25;6.43;;;5.43;;
13973;SDS011;7060;43.770;4.008;2022-10-16T00:08:55;7.27;;;6.57;;
13973;SDS011;7060;43.770;4.008;2022-10-16T00:11:24;11.73;;;7.00;;
13973;SDS011;7060;43.770;4.008;2022-10-16T00:13:55;7.33;;;6.57;;
13973;SDS011;7060;43.770;4.008;2022-10-16T00:16:25;7.53;;;5.87;;
13973;SDS011;7060;43.770;4.008;2022-10-16T00:18:54;9.60;;;6.83;;
13973;SDS011;7060;43.770;4.008;2022-10-16T00:21:24;9.50;;;7.00;;
13973;SDS011;7060;43.770;4.008;2022-10-16T00:23:55;10.33;;;6.80;;
13973;SDS011;7060;43.770;4.008;2022-10-16T00:26:25;8.57;;;6.63;;
13973;SDS011;7060;43.770;4.008;2022-10-16T00:28:56;9.67;;;6.50;;
13973;SDS011;7060;43.770;4.008;2022-10-16T00:31:25;7.93;;;6.00;;
13973;SDS011;7060;43.770;4.008;2022-10-16T00:33:53;8.10;;;6.50;;
13973;SDS011;7060;43.770;4.008;2022-10-16T00:36:22;9.83;;;6.87;;
13973;SDS011;7060;43.770;4.008;2022-10-16T00:38:54;8.67;;;6.17;;
13973;SDS011;7060;43.770;4.008;2022-10-16T00:41:31;7.87;;;6.50;;
13973;SDS011;7060;43.770;4.008;2022-10-16T00:44:00;8.00;;;6.77;;
13973;SDS011;7060;43.770;4.008;2022-10-16T00:46:31;9.87;;;6.40;;
13973;SDS011;7060;43.770;4.008;2022-10-16T00:49:04;5.97;;;5.47;;
13973;SDS011;7060;43.770;4.008;2022-10-16T00:51:34;8.07;;;6.33;;
13973;SDS011;7060;43.770;4.008;2022-10-16T00:54:06;13.47;;;7.43;;
13973;SDS011;7060;43.770;4.008;2022-10-16T00:56:38;9.53;;;6.27;;
13973;SDS011;7060;43.770;4.008;2022-10-16T00:59:10;10.47;;;6.60;;
13973;SDS011;7060;43.770;4.008;2022-10-16T01:01:42;9.90;;;7.10;;
13973;SDS011;7060;43.770;4.008;2022-10-16T01:04:11;8.10;;;6.73;;
13973;SDS011;7060;43.770;4.008;2022-10-16T01:06:41;12.57;;;7.93;;
13973;SDS011;7060;43.770;4.008;2022-10-16T01:09:16;9.30;;;7.83;;
13973;SDS011;7060;43.770;4.008;2022-10-16T01:11:52;9.33;;;7.23;;
13973;SDS011;7060;43.770;4.008;2022-10-16T01:14:32;13.37;;;6.23;;
13973;SDS011;7060;43.770;4.008;2022-10-16T01:17:09;11.03;;;7.30;;
13973;SDS011;7060;43.770;4.008;2022-10-16T01:19:46;7.53;;;6.57;;
13973;SDS011;7060;43.770;4.008;2022-10-16T01:22:31;9.97;;;6.23;;
13973;SDS011;7060;43.770;4.008;2022-10-16T01:25:08;11.40;;;6.83;;
13973;SDS011;7060;43.770;4.008;2022-10-16T01:27:41;8.73;;;6.20;;
13973;SDS011;7060;43.770;4.008;2022-10-16T01:30:15;9.47;;;7.10;;
13973;SDS011;7060;43.770;4.008;2022-10-16T01:32:47;11.07;;;7.37;;
13973;SDS011;7060;43.770;4.008;2022-10-16T01:35:21;12.37;;;7.60;;
13973;SDS011;7060;43.770;4.008;2022-10-16T01:37:53;8.27;;;6.57;;
13973;SDS011;7060;43.770;4.008;2022-10-16T01:40:27;8.30;;;7.20;;
13973;SDS011;7060;43.770;4.008;2022-10-16T01:42:59;11.60;;;7.80;;
13973;SDS011;7060;43.770;4.008;2022-10-16T01:45:31;9.37;;;7.07;;
13973;SDS011;7060;43.770;4.008;2022-10-16T01:48:00;8.10;;;7.27;;
13973;SDS011;7060;43.770;4.008;2022-10-16T01:50:35;9.63;;;7.37;;
13973;SDS011;7060;43.770;4.008;2022-10-16T01:53:07;9.27;;;7.00;;
13973;SDS011;7060;43.770;4.008;2022-10-16T01:55:42;7.83;;;7.07;;
13973;SDS011;7060;43.770;4.008;2022-10-16T01:58:15;8.50;;;6.57;;
13973;SDS011;7060;43.770;4.008;2022-10-16T02:00:44;10.07;;;7.23;;
13973;SDS011;7060;43.770;4.008;2022-10-16T02:03:15;12.37;;;7.63;;
13973;SDS011;7060;43.770;4.008;2022-10-16T02:05:46;10.10;;;7.17;;
13973;SDS011;7060;43.770;4.008;2022-10-16T02:08:18;8.70;;;7.57;;
13973;SDS011;7060;43.770;4.008;2022-10-16T02:10:46;11.33;;;8.57;;
13973;SDS011;7060;43.770;4.008;2022-10-16T02:13:17;8.97;;;8.07;;
13973;SDS011;7060;43.770;4.008;2022-10-16T02:15:51;10.23;;;7.40;;
13973;SDS011;7060;43.770;4.008;2022-10-16T02:18:20;10.33;;;7.73;;
13973;SDS011;7060;43.770;4.008;2022-10-16T02:20:50;9.47;;;7.50;;
13973;SDS011;7060;43.770;4.008;2022-10-16T02:23:24;9.37;;;7.07;;
13973;SDS011;7060;43.770;4.008;2022-10-16T02:26:03;8.70;;;7.20;;
13973;SDS011;7060;43.770;4.008;2022-10-16T02:28:37;7.93;;;6.80;;
13973;SDS011;7060;43.770;4.008;2022-10-16T02:31:10;10.67;;;7.10;;
13973;SDS011;7060;43.770;4.008;2022-10-16T02:33:41;8.67;;;6.97;;
13973;SDS011;7060;43.770;4.008;2022-10-16T02:36:11;8.47;;;6.30;;
13973;SDS011;7060;43.770;4.008;2022-10-16T02:38:40;12.30;;;7.63;;
13973;SDS011;7060;43.770;4.008;2022-10-16T02:41:09;8.17;;;6.50;;
13973;SDS011;7060;43.770;4.008;2022-10-16T02:43:39;10.13;;;7.60;;
13973;SDS011;7060;43.770;4.008;2022-10-16T02:46:07;9.63;;;6.97;;
13973;SDS011;7060;43.770;4.008;2022-10-16T02:48:36;7.93;;;6.97;;
13973;SDS011;7060;43.770;4.008;2022-10-16T02:51:05;13.63;;;8.37;;
13973;SDS011;7060;43.770;4.008;2022-10-16T02:53:34;9.13;;;7.73;;
13973;SDS011;7060;43.770;4.008;2022-10-16T02:56:02;8.90;;;7.03;;
13973;SDS011;7060;43.770;4.008;2022-10-16T02:58:30;13.37;;;7.47;;
13973;SDS011;7060;43.770;4.008;2022-10-16T03:01:00;8.43;;;7.27;;
13973;SDS011;7060;43.770;4.008;2022-10-16T03:03:29;8.30;;;7.27;;
13973;SDS011;7060;43.770;4.008;2022-10-16T03:05:57;9.57;;;7.77;;
13973;SDS011;7060;43.770;4.008;2022-10-16T03:08:25;9.83;;;7.70;;
13973;SDS011;7060;43.770;4.008;2022-10-16T03:10:54;8.53;;;7.63;;
13973;SDS011;7060;43.770;4.008;2022-10-16T03:13:22;10.10;;;7.30;;
13973;SDS011;7060;43.770;4.008;2022-10-16T03:15:50;8.90;;;7.20;;
13973;SDS011;7060;43.770;4.008;2022-10-16T03:18:20;7.83;;;6.53;;
13973;SDS011;7060;43.770;4.008;2022-10-16T03:20:48;9.53;;;6.60;;
13973;SDS011;7060;43.770;4.008;2022-10-16T03:23:17;10.00;;;7.53;;
13973;SDS011;7060;43.770;4.008;2022-10-16T03:25:45;11.17;;;6.57;;
13973;SDS011;7060;43.770;4.008;2022-10-16T03:28:14;9.30;;;7.03;;
13973;SDS011;7060;43.770;4.008;2022-10-16T03:30:42;11.47;;;7.23;;
13973;SDS011;7060;43.770;4.008;2022-10-16T03:33:11;8.93;;;6.20;;
13973;SDS011;7060;43.770;4.008;2022-10-16T03:35:40;8.90;;;6.30;;
13973;SDS011;7060;43.770;4.008;2022-10-16T03:38:09;10.97;;;6.70;;
13973;SDS011;7060;43.770;4.008;2022-10-16T03:40:37;9.10;;;6.97;;
13973;SDS011;7060;43.770;4.008;2022-10-16T03:43:05;7.97;;;5.97;;
13973;SDS011;7060;43.770;4.008;2022-10-16T03:45:34;8.13;;;6.00;;
13973;SDS011;7060;43.770;4.008;2022-10-16T03:48:02;9.33;;;5.63;;
13973;SDS011;7060;43.770;4.008;2022-10-16T03:50:31;8.30;;;5.73;;
13973;SDS011;7060;43.770;4.008;2022-10-16T03:53:00;8.63;;;5.57;;
13973;SDS011;7060;43.770;4.008;2022-10-16T03:55:29;8.53;;;5.80;;
13973;SDS011;7060;43.770;4.008;2022-10-16T03:57:57;6.87;;;5.73;;
13973;SDS011;7060;43.770;4.008;2022-10-16T04:00:25;9.40;;;5.40;;
13973;SDS011;7060;43.770;4.008;2022-10-16T04:02:54;8.60;;;5.03;;
13973;SDS011;7060;43.770;4.008;2022-10-16T04:05:22;8.27;;;5.43;;
13973;SDS011;7060;43.770;4.008;2022-10-16T04:07:51;7.07;;;5.70;;
13973;SDS011;7060;43.770;4.008;2022-10-16T04:10:20;5.90;;;5.30;;
13973;SDS011;7060;43.770;4.008;2022-10-16T04:12:48;7.87;;;6.07;;
13973;SDS011;7060;43.770;4.008;2022-10-16T04:15:17;6.10;;;5.23;;
13973;SDS011;7060;43.770;4.008;2022-10-16T04:17:45;5.53;;;4.90;;
13973;SDS011;7060;43.770;4.008;2022-10-16T04:20:13;8.47;;;5.47;;
13973;SDS011;7060;43.770;4.008;2022-10-16T04:22:42;7.47;;;5.27;;
13973;SDS011;7060;43.770;4.008;2022-10-16T04:25:11;7.40;;;5.20;;
13973;SDS011;7060;43.770;4.008;2022-10-16T04:27:41;10.17;;;5.50;;
13973;SDS011;7060;43.770;4.008;2022-10-16T04:30:11;8.07;;;5.27;;
13973;SDS011;7060;43.770;4.008;2022-10-16T04:32:40;6.27;;;5.67;;
13973;SDS011;7060;43.770;4.008;2022-10-16T04:35:08;6.20;;;5.10;;
13973;SDS011;7060;43.770;4.008;2022-10-16T04:37:37;8.40;;;5.53;;
13973;SDS011;7060;43.770;4.008;2022-10-16T04:40:05;6.37;;;4.97;;
13973;SDS011;7060;43.770;4.008;2022-10-16T04:42:34;8.17;;;5.73;;
13973;SDS011;7060;43.770;4.008;2022-10-16T04:45:05;8.37;;;6.00;;
13973;SDS011;7060;43.770;4.008;2022-10-16T04:47:40;6.17;;;5.37;;
13973;SDS011;7060;43.770;4.008;2022-10-16T04:50:08;7.97;;;5.83;;
13973;SDS011;7060;43.770;4.008;2022-10-16T04:52:37;9.50;;;5.33;;
13973;SDS011;7060;43.770;4.008;2022-10-16T04:55:05;9.10;;;5.70;;
13973;SDS011;7060;43.770;4.008;2022-10-16T04:57:34;6.70;;;5.70;;
13973;SDS011;7060;43.770;4.008;2022-10-16T05:00:05;7.13;;;6.07;;
13973;SDS011;7060;43.770;4.008;2022-10-16T05:02:34;8.00;;;5.47;;
13973;SDS011;7060;43.770;4.008;2022-10-16T05:05:03;8.83;;;5.40;;
13973;SDS011;7060;43.770;4.008;2022-10-16T05:07:32;11.37;;;5.63;;
13973;SDS011;7060;43.770;4.008;2022-10-16T05:10:00;9.30;;;6.23;;
13973;SDS011;7060;43.770;4.008;2022-10-16T05:12:28;7.57;;;5.53;;
13973;SDS011;7060;43.770;4.008;2022-10-16T05:14:57;6.50;;;5.50;;
13973;SDS011;7060;43.770;4.008;2022-10-16T05:17:27;6.50;;;5.70;;
13973;SDS011;7060;43.770;4.008;2022-10-16T05:19:55;6.43;;;5.67;;
13973;SDS011;7060;43.770;4.008;2022-10-16T05:22:23;7.17;;;5.17;;
13973;SDS011;7060;43.770;4.008;2022-10-16T05:24:52;5.80;;;5.20;;
13973;SDS011;7060;43.770;4.008;2022-10-16T05:27:21;8.87;;;5.37;;
13973;SDS011;7060;43.770;4.008;2022-10-16T05:29:50;9.37;;;5.60;;
13973;SDS011;7060;43.770;4.008;2022-10-16T05:32:19;7.07;;;5.90;;
13973;SDS011;7060;43.770;4.008;2022-10-16T05:34:50;10.03;;;7.50;;
13973;SDS011;7060;43.770;4.008;2022-10-16T05:37:18;9.53;;;6.03;;
13973;SDS011;7060;43.770;4.008;2022-10-16T05:39:47;7.57;;;5.87;;
13973;SDS011;7060;43.770;4.008;2022-10-16T05:42:15;8.37;;;6.03;;
13973;SDS011;7060;43.770;4.008;2022-10-16T05:44:44;7.33;;;6.43;;
13973;SDS011;7060;43.770;4.008;2022-10-16T05:47:13;9.30;;;6.23;;
13973;SDS011;7060;43.770;4.008;2022-10-16T05:49:42;8.80;;;6.23;;
13973;SDS011;7060;43.770;4.008;2022-10-16T05:52:12;9.53;;;6.77;;
13973;SDS011;7060;43.770;4.008;2022-10-16T05:54:40;10.13;;;7.33;;
13973;SDS011;7060;43.770;4.008;2022-10-16T05:57:10;9.40;;;6.80;;
13973;SDS011;7060;43.770;4.008;2022-10-16T05:59:38;8.87;;;6.77;;
13973;SDS011;7060;43.770;4.008;2022-10-16T06:02:07;7.50;;;6.70;;
13973;SDS011;7060;43.770;4.008;2022-10-16T06:04:39;8.03;;;6.60;;
13973;SDS011;7060;43.770;4.008;2022-10-16T06:07:10;8.40;;;6.37;;
13973;SDS011;7060;43.770;4.008;2022-10-16T06:09:40;12.20;;;6.80;;
13973;SDS011;7060;43.770;4.008;2022-10-16T06:12:09;7.13;;;6.10;;
13973;SDS011;7060;43.770;4.008;2022-10-16T06:14:37;9.27;;;6.97;;
13973;SDS011;7060;43.770;4.008;2022-10-16T06:17:06;6.97;;;6.27;;
13973;SDS011;7060;43.770;4.008;2022-10-16T06:19:34;8.90;;;6.53;;
13973;SDS011;7060;43.770;4.008;2022-10-16T06:22:03;7.80;;;6.00;;
13973;SDS011;7060;43.770;4.008;2022-10-16T06:24:33;9.00;;;6.27;;
13973;SDS011;7060;43.770;4.008;2022-10-16T06:27:02;8.30;;;6.13;;
13973;SDS011;7060;43.770;4.008;2022-10-16T06:29:32;8.67;;;7.00;;
13973;SDS011;7060;43.770;4.008;2022-10-16T06:32:00;8.10;;;6.30;;
13973;SDS011;7060;43.770;4.008;2022-10-16T06:34:29;8.87;;;6.40;;
13973;SDS011;7060;43.770;4.008;2022-10-16T06:36:58;8.07;;;6.27;;
13973;SDS011;7060;43.770;4.008;2022-10-16T06:39:27;7.57;;;5.97;;
13973;SDS011;7060;43.770;4.008;2022-10-16T06:41:56;7.97;;;6.20;;
13973;SDS011;7060;43.770;4.008;2022-10-16T06:44:34;8.53;;;6.77;;
13973;SDS011;7060;43.770;4.008;2022-10-16T06:47:03;8.50;;;6.50;;
13973;SDS011;7060;43.770;4.008;2022-10-16T06:49:31;7.37;;;6.57;;
13973;SDS011;7060;43.770;4.008;2022-10-16T06:52:00;6.40;;;5.80;;
13973;SDS011;7060;43.770;4.008;2022-10-16T06:54:28;6.60;;;6.00;;
13973;SDS011;7060;43.770;4.008;2022-10-16T06:57:08;9.60;;;6.70;;
13973;SDS011;7060;43.770;4.008;2022-10-16T06:59:37;8.73;;;6.57;;
13973;SDS011;7060;43.770;4.008;2022-10-16T07:02:10;9.13;;;6.13;;
13973;SDS011;7060;43.770;4.008;2022-10-16T07:04:39;6.53;;;5.90;;
13973;SDS011;7060;43.770;4.008;2022-10-16T07:07:07;6.67;;;5.70;;
13973;SDS011;7060;43.770;4.008;2022-10-16T07:09:36;7.03;;;5.23;;
13973;SDS011;7060;43.770;4.008;2022-10-16T07:12:05;9.33;;;6.10;;
13973;SDS011;7060;43.770;4.008;2022-10-16T07:14:35;6.50;;;5.20;;
13973;SDS011;7060;43.770;4.008;2022-10-16T07:17:04;6.40;;;5.33;;
13973;SDS011;7060;43.770;4.008;2022-10-16T07:19:32;6.00;;;5.00;;
13973;SDS011;7060;43.770;4.008;2022-10-16T07:22:00;7.07;;;5.23;;
13973;SDS011;7060;43.770;4.008;2022-10-16T07:24:29;7.33;;;4.30;;
13973;SDS011;7060;43.770;4.008;2022-10-16T07:26:58;6.73;;;4.63;;
13973;SDS011;7060;43.770;4.008;2022-10-16T07:29:27;5.57;;;3.80;;
13973;SDS011;7060;43.770;4.008;2022-10-16T07:31:57;5.97;;;3.63;;
13973;SDS011;7060;43.770;4.008;2022-10-16T07:34:25;5.13;;;4.10;;
13973;SDS011;7060;43.770;4.008;2022-10-16T07:36:54;5.20;;;3.88;;
13973;SDS011;7060;43.770;4.008;2022-10-16T07:39:22;6.65;;;3.50;;
13973;SDS011;7060;43.770;4.008;2022-10-16T07:41:51;6.80;;;4.00;;
13973;SDS011;7060;43.770;4.008;2022-10-16T07:44:19;5.40;;;4.50;;
13973;SDS011;7060;43.770;4.008;2022-10-16T07:46:47;6.15;;;4.03;;
13973;SDS011;7060;43.770;4.008;2022-10-16T07:49:17;7.37;;;4.53;;
13973;SDS011;7060;43.770;4.008;2022-10-16T07:51:45;4.25;;;3.75;;
13973;SDS011;7060;43.770;4.008;2022-10-16T07:54:14;9.00;;;4.57;;
13973;SDS011;7060;43.770;4.008;2022-10-16T07:56:42;7.37;;;4.40;;
13973;SDS011;7060;43.770;4.008;2022-10-16T07:59:10;5.90;;;4.50;;
13973;SDS011;7060;43.770;4.008;2022-10-16T08:01:39;6.40;;;4.97;;
13973;SDS011;7060;43.770;4.008;2022-10-16T08:04:08;6.57;;;4.10;;
13973;SDS011;7060;43.770;4.008;2022-10-16T08:06:39;6.70;;;4.77;;
13973;SDS011;7060;43.770;4.008;2022-10-16T08:09:08;5.90;;;3.93;;
13973;SDS011;7060;43.770;4.008;2022-10-16T08:11:36;4.93;;;4.40;;
13973;SDS011;7060;43.770;4.008;2022-10-16T08:14:05;6.70;;;4.50;;
13973;SDS011;7060;43.770;4.008;2022-10-16T08:16:33;5.27;;;4.33;;
13973;SDS011;7060;43.770;4.008;2022-10-16T08:19:01;6.63;;;4.63;;
13973;SDS011;7060;43.770;4.008;2022-10-16T08:21:30;5.67;;;4.60;;
13973;SDS011;7060;43.770;4.008;2022-10-16T08:23:59;5.63;;;4.10;;
13973;SDS011;7060;43.770;4.008;2022-10-16T08:26:28;6.50;;;4.50;;
13973;SDS011;7060;43.770;4.008;2022-10-16T08:28:56;7.53;;;4.23;;
13973;SDS011;7060;43.770;4.008;2022-10-16T08:31:24;7.97;;;4.80;;
13973;SDS011;7060;43.770;4.008;2022-10-16T08:33:54;5.37;;;4.30;;
13973;SDS011;7060;43.770;4.008;2022-10-16T08:36:22;8.17;;;5.13;;
13973;SDS011;7060;43.770;4.008;2022-10-16T08:38:50;6.27;;;4.53;;
13973;SDS011;7060;43.770;4.008;2022-10-16T08:41:31;7.43;;;4.77;;
13973;SDS011;7060;43.770;4.008;2022-10-16T08:44:24;4.03;;;3.50;;
13973;SDS011;7060;43.770;4.008;2022-10-16T08:47:09;8.63;;;4.40;;
13973;SDS011;7060;43.770;4.008;2022-10-16T08:49:48;4.43;;;4.03;;
13973;SDS011;7060;43.770;4.008;2022-10-16T08:52:24;6.70;;;4.23;;
13973;SDS011;7060;43.770;4.008;2022-10-16T08:54:56;9.50;;;6.90;;
13973;SDS011;7060;43.770;4.008;2022-10-16T08:57:26;8.00;;;6.27;;
13973;SDS011;7060;43.770;4.008;2022-10-16T08:59:57;5.97;;;5.37;;
13973;SDS011;7060;43.770;4.008;2022-10-16T09:02:30;6.73;;;4.73;;
13973;SDS011;7060;43.770;4.008;2022-10-16T09:05:03;5.77;;;4.63;;
13973;SDS011;7060;43.770;4.008;2022-10-16T09:07:51;6.50;;;4.77;;
13973;SDS011;7060;43.770;4.008;2022-10-16T09:10:38;6.57;;;5.30;;
13973;SDS011;7060;43.770;4.008;2022-10-16T09:13:17;6.93;;;5.10;;
13973;SDS011;7060;43.770;4.008;2022-10-16T09:15:53;9.00;;;4.80;;
13973;SDS011;7060;43.770;4.008;2022-10-16T09:18:29;8.00;;;5.53;;
13973;SDS011;7060;43.770;4.008;2022-10-16T09:21:05;5.70;;;5.10;;
13973;SDS011;7060;43.770;4.008;2022-10-16T09:23:39;6.57;;;4.90;;
13973;SDS011;7060;43.770;4.008;2022-10-16T09:26:09;6.77;;;4.60;;
13973;SDS011;7060;43.770;4.008;2022-10-16T09:28:41;6.00;;;4.70;;
13973;SDS011;7060;43.770;4.008;2022-10-16T09:31:13;7.87;;;5.43;;
13973;SDS011;7060;43.770;4.008;2022-10-16T09:33:47;9.80;;;5.70;;
13973;SDS011;7060;43.770;4.008;2022-10-16T09:36:20;8.10;;;6.67;;
13973;SDS011;7060;43.770;4.008;2022-10-16T09:38:49;6.97;;;5.77;;
13973;SDS011;7060;43.770;4.008;2022-10-16T09:41:21;9.57;;;6.03;;
13973;SDS011;7060;43.770;4.008;2022-10-16T09:43:53;7.80;;;6.60;;
13973;SDS011;7060;43.770;4.008;2022-10-16T09:46:28;7.13;;;5.37;;
13973;SDS011;7060;43.770;4.008;2022-10-16T09:48:58;8.83;;;5.70;;
13973;SDS011;7060;43.770;4.008;2022-10-16T09:51:29;7.23;;;6.03;;
13973;SDS011;7060;43.770;4.008;2022-10-16T09:53:59;10.13;;;6.87;;
13973;SDS011;7060;43.770;4.008;2022-10-16T09:56:29;12.63;;;7.47;;
13973;SDS011;7060;43.770;4.008;2022-10-16T09:59:03;7.73;;;6.67;;
13973;SDS011;7060;43.770;4.008;2022-10-16T10:01:39;16.73;;;7.03;;
13973;SDS011;7060;43.770;4.008;2022-10-16T10:04:09;8.80;;;6.53;;
13973;SDS011;7060;43.770;4.008;2022-10-16T10:06:41;7.47;;;6.60;;
13973;SDS011;7060;43.770;4.008;2022-10-16T10:09:19;8.37;;;6.63;;
13973;SDS011;7060;43.770;4.008;2022-10-16T10:11:52;6.67;;;5.93;;
13973;SDS011;7060;43.770;4.008;2022-10-16T10:14:24;9.27;;;5.13;;
13973;SDS011;7060;43.770;4.008;2022-10-16T10:19:48;8.07;;;5.40;;
13973;SDS011;7060;43.770;4.008;2022-10-16T10:22:21;12.33;;;5.70;;
13973;SDS011;7060;43.770;4.008;2022-10-16T10:24:56;6.57;;;4.70;;
13973;SDS011;7060;43.770;4.008;2022-10-16T10:27:31;7.20;;;4.97;;
13973;SDS011;7060;43.770;4.008;2022-10-16T10:30:06;7.53;;;4.80;;
13973;SDS011;7060;43.770;4.008;2022-10-16T10:32:50;8.07;;;5.57;;
13973;SDS011;7060;43.770;4.008;2022-10-16T10:35:34;5.60;;;4.83;;
13973;SDS011;7060;43.770;4.008;2022-10-16T10:38:23;9.53;;;5.10;;
13973;SDS011;7060;43.770;4.008;2022-10-16T10:41:01;7.63;;;4.60;;
13973;SDS011;7060;43.770;4.008;2022-10-16T10:43:47;5.82;;;4.50;;
13973;SDS011;7060;43.770;4.008;2022-10-16T10:46:28;8.27;;;4.57;;
13973;SDS011;7060;43.770;4.008;2022-10-16T10:49:09;6.45;;;4.57;;
13973;SDS011;7060;43.770;4.008;2022-10-16T10:51:53;5.88;;;4.45;;
13973;SDS011;7060;43.770;4.008;2022-10-16T10:54:36;8.10;;;4.70;;
13973;SDS011;7060;43.770;4.008;2022-10-16T10:57:15;6.95;;;4.45;;
13973;SDS011;7060;43.770;4.008;2022-10-16T10:59:54;6.03;;;4.90;;
13973;SDS011;7060;43.770;4.008;2022-10-16T11:02:46;5.93;;;4.57;;
13973;SDS011;7060;43.770;4.008;2022-10-16T11:08:16;10.10;;;5.68;;
13973;SDS011;7060;43.770;4.008;2022-10-16T11:10:50;11.00;;;6.03;;
13973;SDS011;7060;43.770;4.008;2022-10-16T11:13:28;10.73;;;5.85;;
13973;SDS011;7060;43.770;4.008;2022-10-16T11:16:02;6.80;;;5.72;;
13973;SDS011;7060;43.770;4.008;2022-10-16T11:18:45;8.30;;;5.78;;
13973;SDS011;7060;43.770;4.008;2022-10-16T11:21:18;9.95;;;6.20;;
13973;SDS011;7060;43.770;4.008;2022-10-16T11:23:56;8.13;;;5.67;;
13973;SDS011;7060;43.770;4.008;2022-10-16T11:26:28;7.22;;;5.05;;
13973;SDS011;7060;43.770;4.008;2022-10-16T11:29:01;9.50;;;4.70;;
13973;SDS011;7060;43.770;4.008;2022-10-16T11:31:34;6.70;;;4.65;;
13973;SDS011;7060;43.770;4.008;2022-10-16T11:34:12;6.05;;;4.60;;
13973;SDS011;7060;43.770;4.008;2022-10-16T11:36:53;5.90;;;3.85;;
13973;SDS011;7060;43.770;4.008;2022-10-16T11:39:28;9.02;;;4.18;;
13973;SDS011;7060;43.770;4.008;2022-10-16T11:41:59;10.23;;;4.75;;
13973;SDS011;7060;43.770;4.008;2022-10-16T11:44:35;7.53;;;4.15;;
13973;SDS011;7060;43.770;4.008;2022-10-16T11:47:26;12.63;;;5.38;;
13973;SDS011;7060;43.770;4.008;2022-10-16T11:50:23;9.48;;;4.28;;
13973;SDS011;7060;43.770;4.008;2022-10-16T11:52:59;9.63;;;4.38;;
13973;SDS011;7060;43.770;4.008;2022-10-16T11:55:32;5.38;;;3.60;;
13973;SDS011;7060;43.770;4.008;2022-10-16T11:58:13;7.55;;;4.15;;
13973;SDS011;7060;43.770;4.008;2022-10-16T12:00:52;5.90;;;3.88;;
13973;SDS011;7060;43.770;4.008;2022-10-16T12:03:26;5.22;;;3.70;;
13973;SDS011;7060;43.770;4.008;2022-10-16T12:06:05;4.57;;;3.47;;
13973;SDS011;7060;43.770;4.008;2022-10-16T12:08:52;5.45;;;3.80;;
13973;SDS011;7060;43.770;4.008;2022-10-16T12:11:24;8.52;;;3.97;;
13973;SDS011;7060;43.770;4.008;2022-10-16T12:14:04;5.38;;;3.33;;
13973;SDS011;7060;43.770;4.008;2022-10-16T12:16:53;6.40;;;3.65;;
13973;SDS011;7060;43.770;4.008;2022-10-16T12:19:25;11.30;;;3.45;;
13973;SDS011;7060;43.770;4.008;2022-10-16T12:21:57;5.22;;;3.63;;
13973;SDS011;7060;43.770;4.008;2022-10-16T12:24:32;6.45;;;4.25;;
13973;SDS011;7060;43.770;4.008;2022-10-16T12:27:03;9.05;;;4.07;;
13973;SDS011;7060;43.770;4.008;2022-10-16T12:29:35;6.10;;;3.65;;
13973;SDS011;7060;43.770;4.008;2022-10-16T12:32:05;6.57;;;3.33;;
13973;SDS011;7060;43.770;4.008;2022-10-16T12:35:17;6.65;;;3.88;;
13973;SDS011;7060;43.770;4.008;2022-10-16T12:37:49;7.53;;;3.65;;
13973;SDS011;7060;43.770;4.008;2022-10-16T12:40:26;4.00;;;3.00;;
13973;SDS011;7060;43.770;4.008;2022-10-16T12:42:57;5.40;;;3.13;;
13973;SDS011;7060;43.770;4.008;2022-10-16T12:45:27;6.55;;;3.28;;
13973;SDS011;7060;43.770;4.008;2022-10-16T12:47:58;7.35;;;3.50;;
13973;SDS011;7060;43.770;4.008;2022-10-16T12:50:32;4.60;;;3.05;;
13973;SDS011;7060;43.770;4.008;2022-10-16T12:53:16;4.97;;;3.28;;
13973;SDS011;7060;43.770;4.008;2022-10-16T12:55:50;6.97;;;3.35;;
13973;SDS011;7060;43.770;4.008;2022-10-16T12:58:27;3.70;;;3.08;;
13973;SDS011;7060;43.770;4.008;2022-10-16T13:01:12;7.25;;;3.15;;
13973;SDS011;7060;43.770;4.008;2022-10-16T13:03:56;5.65;;;2.92;;
13973;SDS011;7060;43.770;4.008;2022-10-16T13:06:42;7.78;;;3.25;;
13973;SDS011;7060;43.770;4.008;2022-10-16T13:09:32;4.47;;;3.13;;
13973;SDS011;7060;43.770;4.008;2022-10-16T13:12:22;5.20;;;3.42;;
13973;SDS011;7060;43.770;4.008;2022-10-16T13:17:57;5.97;;;3.33;;
13973;SDS011;7060;43.770;4.008;2022-10-16T13:20:33;5.32;;;3.35;;
13973;SDS011;7060;43.770;4.008;2022-10-16T13:23:06;7.00;;;2.90;;
13973;SDS011;7060;43.770;4.008;2022-10-16T13:25:51;3.88;;;2.67;;
13973;SDS011;7060;43.770;4.008;2022-10-16T13:28:33;5.80;;;3.58;;
13973;SDS011;7060;43.770;4.008;2022-10-16T13:31:03;5.32;;;2.95;;
13973;SDS011;7060;43.770;4.008;2022-10-16T13:33:33;4.70;;;2.72;;
13973;SDS011;7060;43.770;4.008;2022-10-16T13:36:04;4.95;;;3.03;;
13973;SDS011;7060;43.770;4.008;2022-10-16T13:38:33;5.82;;;2.75;;
13973;SDS011;7060;43.770;4.008;2022-10-16T13:41:05;6.97;;;2.63;;
13973;SDS011;7060;43.770;4.008;2022-10-16T13:43:42;5.43;;;2.17;;
13973;SDS011;7060;43.770;4.008;2022-10-16T13:46:13;7.28;;;2.30;;
13973;SDS011;7060;43.770;4.008;2022-10-16T13:48:42;7.13;;;3.90;;
13973;SDS011;7060;43.770;4.008;2022-10-16T13:51:12;4.93;;;2.53;;
13973;SDS011;7060;43.770;4.008;2022-10-16T13:53:42;6.38;;;2.67;;
13973;SDS011;7060;43.770;4.008;2022-10-16T13:56:13;7.28;;;3.17;;
13973;SDS011;7060;43.770;4.008;2022-10-16T13:58:43;6.32;;;2.95;;
13973;SDS011;7060;43.770;4.008;2022-10-16T14:01:15;5.97;;;2.78;;
13973;SDS011;7060;43.770;4.008;2022-10-16T14:03:46;5.68;;;2.75;;
13973;SDS011;7060;43.770;4.008;2022-10-16T14:06:15;8.05;;;3.50;;
13973;SDS011;7060;43.770;4.008;2022-10-16T14:08:48;7.15;;;3.05;;
13973;SDS011;7060;43.770;4.008;2022-10-16T14:11:23;5.85;;;2.60;;
13973;SDS011;7060;43.770;4.008;2022-10-16T14:13:52;6.53;;;3.20;;
13973;SDS011;7060;43.770;4.008;2022-10-16T14:16:22;5.70;;;3.28;;
13973;SDS011;7060;43.770;4.008;2022-10-16T14:18:55;8.38;;;3.40;;
13973;SDS011;7060;43.770;4.008;2022-10-16T14:21:25;6.88;;;3.00;;
13973;SDS011;7060;43.770;4.008;2022-10-16T14:23:54;7.13;;;2.38;;
13973;SDS011;7060;43.770;4.008;2022-10-16T14:26:25;6.55;;;2.78;;
13973;SDS011;7060;43.770;4.008;2022-10-16T14:29:02;7.78;;;2.60;;
13973;SDS011;7060;43.770;4.008;2022-10-16T14:31:38;4.85;;;2.47;;
13973;SDS011;7060;43.770;4.008;2022-10-16T14:36:54;5.03;;;3.20;;
13973;SDS011;7060;43.770;4.008;2022-10-16T14:39:24;8.18;;;2.72;;
13973;SDS011;7060;43.770;4.008;2022-10-16T14:41:56;7.00;;;2.75;;
13973;SDS011;7060;43.770;4.008;2022-10-16T14:44:29;4.35;;;2.63;;
13973;SDS011;7060;43.770;4.008;2022-10-16T14:47:07;6.85;;;3.22;;
13973;SDS011;7060;43.770;4.008;2022-10-16T14:49:41;8.68;;;3.30;;
13973;SDS011;7060;43.770;4.008;2022-10-16T14:52:10;9.13;;;3.42;;
13973;SDS011;7060;43.770;4.008;2022-10-16T14:54:40;5.53;;;3.45;;
13973;SDS011;7060;43.770;4.008;2022-10-16T14:57:17;4.57;;;3.08;;
13973;SDS011;7060;43.770;4.008;2022-10-16T14:59:47;5.90;;;3.10;;
13973;SDS011;7060;43.770;4.008;2022-10-16T15:02:27;5.25;;;2.78;;
13973;SDS011;7060;43.770;4.008;2022-10-16T15:04:57;6.20;;;2.92;;
13973;SDS011;7060;43.770;4.008;2022-10-16T15:07:29;4.20;;;3.13;;
13973;SDS011;7060;43.770;4.008;2022-10-16T15:09:58;7.72;;;3.42;;
13973;SDS011;7060;43.770;4.008;2022-10-16T15:12:27;6.05;;;2.80;;
13973;SDS011;7060;43.770;4.008;2022-10-16T15:14:56;6.38;;;3.53;;
13973;SDS011;7060;43.770;4.008;2022-10-16T15:17:24;6.70;;;3.38;;
13973;SDS011;7060;43.770;4.008;2022-10-16T15:19:53;6.57;;;3.38;;
13973;SDS011;7060;43.770;4.008;2022-10-16T15:22:21;5.28;;;3.63;;
13973;SDS011;7060;43.770;4.008;2022-10-16T15:24:50;6.88;;;3.70;;
13973;SDS011;7060;43.770;4.008;2022-10-16T15:27:18;4.55;;;3.05;;
13973;SDS011;7060;43.770;4.008;2022-10-16T15:29:48;5.13;;;3.40;;
13973;SDS011;7060;43.770;4.008;2022-10-16T15:32:16;6.95;;;4.07;;
13973;SDS011;7060;43.770;4.008;2022-10-16T15:34:44;6.40;;;3.28;;
13973;SDS011;7060;43.770;4.008;2022-10-16T15:37:12;8.20;;;3.50;;
13973;SDS011;7060;43.770;4.008;2022-10-16T15:39:41;5.88;;;3.22;;
13973;SDS011;7060;43.770;4.008;2022-10-16T15:42:09;7.00;;;3.72;;